Time;durP1;ratioP1;P1;durP2;ratioP2;P2;SDS_P1;SDS_P2;PMS_P1;PMS_P2;Temp;Humidity;BMP_temperature;BMP_pressure;BME280_temperature;BME280_humidity;BME280_pressure;Samples;Min_cycle;Max_cycle;Signal;HPM_P1;HPM_P2
2022/03/07 00:01:41;;;;;;;14.95;12.07;;;4.60;99.90;;;;;;5062253;28;20031;-77
2022/03/07 00:04:07;;;;;;;17.58;12.73;;;4.50;99.90;;;;;;5080667;28;20028;-77
2022/03/07 00:06:32;;;;;;;18.48;12.15;;;4.50;99.90;;;;;;5062499;28;20104;-77
2022/03/07 00:08:58;;;;;;;16.30;12.18;;;4.40;99.90;;;;;;5080807;28;20021;-78
2022/03/07 00:11:24;;;;;;;16.55;11.88;;;4.40;99.90;;;;;;5062405;28;20400;-77
2022/03/07 00:13:51;;;;;;;15.77;12.60;;;4.50;99.90;;;;;;5080562;28;20054;-77
2022/03/07 00:16:17;;;;;;;14.43;12.05;;;4.50;99.90;;;;;;5080097;28;20028;-77
2022/03/07 00:18:43;;;;;;;15.93;12.52;;;4.50;99.90;;;;;;5062354;28;20428;-77
2022/03/07 00:21:09;;;;;;;18.65;12.98;;;4.50;99.90;;;;;;5080172;28;20033;-77
2022/03/07 00:23:35;;;;;;;18.45;12.20;;;4.50;99.90;;;;;;5062285;28;20025;-77
2022/03/07 00:26:01;;;;;;;17.45;13.15;;;4.50;99.90;;;;;;5062188;28;20028;-77
2022/03/07 00:28:27;;;;;;;19.95;13.60;;;4.40;99.90;;;;;;5061902;28;20024;-77
2022/03/07 00:30:52;;;;;;;16.83;13.27;;;4.40;99.90;;;;;;5079945;28;20032;-77
2022/03/07 00:33:18;;;;;;;22.13;13.32;;;4.40;99.90;;;;;;5062275;28;20074;-77
2022/03/07 00:35:44;;;;;;;23.63;12.30;;;4.40;99.90;;;;;;5079940;28;20500;-77
2022/03/07 00:38:10;;;;;;;22.02;13.02;;;4.30;99.90;;;;;;5079902;28;20036;-77
2022/03/07 00:40:36;;;;;;;16.05;11.48;;;4.40;99.90;;;;;;5062057;28;20033;-77
2022/03/07 00:43:07;;;;;;;20.80;12.70;;;4.30;99.90;;;;;;5061957;28;20032;-77
2022/03/07 00:45:34;;;;;;;18.08;12.93;;;4.30;99.90;;;;;;5061543;28;20025;-77
2022/03/07 00:47:59;;;;;;;20.98;13.18;;;4.30;99.90;;;;;;5080037;28;20032;-77
2022/03/07 00:50:25;;;;;;;19.75;13.25;;;4.30;99.90;;;;;;5061739;28;20483;-77
2022/03/07 00:52:51;;;;;;;18.33;12.70;;;4.20;99.90;;;;;;5079938;28;20024;-77
2022/03/07 00:55:17;;;;;;;16.50;12.10;;;4.20;99.90;;;;;;5060995;28;20073;-77
2022/03/07 00:57:43;;;;;;;14.18;12.10;;;4.20;99.90;;;;;;5079413;28;20465;-77
2022/03/07 01:00:09;;;;;;;15.57;12.20;;;4.20;99.90;;;;;;5061665;28;20035;-77
2022/03/07 01:02:35;;;;;;;16.25;12.18;;;4.10;99.90;;;;;;5079440;28;20489;-77
2022/03/07 01:05:01;;;;;;;17.52;11.82;;;4.00;99.90;;;;;;5079590;28;20101;-77
2022/03/07 01:07:27;;;;;;;18.23;13.93;;;3.90;99.90;;;;;;5061343;28;20027;-77
2022/03/07 01:09:53;;;;;;;21.65;16.20;;;3.80;99.90;;;;;;5079373;28;20462;-77
2022/03/07 01:12:19;;;;;;;19.70;15.07;;;3.70;99.90;;;;;;5079125;28;20392;-77
2022/03/07 01:14:45;;;;;;;20.38;14.82;;;3.60;99.90;;;;;;5060508;28;20039;-77
2022/03/07 01:17:11;;;;;;;17.85;14.27;;;3.50;99.90;;;;;;5079221;28;20021;-77
2022/03/07 01:19:37;;;;;;;20.23;14.90;;;3.50;99.90;;;;;;5079274;28;20389;-77
2022/03/07 01:22:03;;;;;;;21.08;15.40;;;3.50;99.90;;;;;;5061103;28;20059;-77
2022/03/07 01:24:30;;;;;;;20.10;14.30;;;3.40;99.90;;;;;;5079280;28;20064;-77
2022/03/07 01:26:56;;;;;;;19.30;14.60;;;3.40;99.90;;;;;;5079437;28;20027;-77
2022/03/07 01:29:22;;;;;;;17.35;13.90;;;3.30;99.90;;;;;;5079348;28;20021;-76
2022/03/07 01:31:48;;;;;;;22.30;15.20;;;3.30;99.90;;;;;;5060557;28;20107;-76
2022/03/07 01:34:14;;;;;;;20.90;15.10;;;3.30;99.90;;;;;;5079205;28;20029;-77
2022/03/07 01:36:40;;;;;;;23.15;16.98;;;3.20;99.90;;;;;;5078931;28;20028;-77
2022/03/07 01:39:06;;;;;;;30.77;18.10;;;3.20;99.90;;;;;;5060769;28;20049;-77
2022/03/07 01:41:32;;;;;;;21.83;16.70;;;3.20;99.90;;;;;;5060908;28;20523;-76
2022/03/07 01:43:58;;;;;;;23.17;16.45;;;3.10;99.90;;;;;;5079145;28;20029;-76
2022/03/07 01:46:24;;;;;;;21.40;15.98;;;3.20;99.90;;;;;;5060716;28;20427;-76
2022/03/07 01:48:50;;;;;;;19.23;15.60;;;3.10;99.90;;;;;;5078637;28;20029;-77
2022/03/07 01:51:17;;;;;;;19.20;14.27;;;3.10;99.90;;;;;;5060548;28;20021;-76
2022/03/07 01:53:43;;;;;;;20.20;15.07;;;3.10;99.90;;;;;;5078740;28;20060;-76
2022/03/07 01:56:08;;;;;;;18.65;15.27;;;3.10;99.90;;;;;;5059996;28;20028;-76
2022/03/07 01:58:35;;;;;;;19.73;15.80;;;3.10;99.90;;;;;;5078689;28;20025;-76
2022/03/07 02:01:02;;;;;;;19.13;14.63;;;3.00;99.90;;;;;;5060170;28;20054;-76
2022/03/07 02:03:27;;;;;;;30.38;17.40;;;3.00;99.90;;;;;;5060664;28;20071;-76
2022/03/07 02:05:54;;;;;;;17.27;13.60;;;2.90;99.90;;;;;;5078410;28;20027;-76
2022/03/07 02:08:20;;;;;;;21.25;14.18;;;2.80;99.90;;;;;;5059461;28;20037;-77
2022/03/07 02:10:46;;;;;;;18.58;14.55;;;2.70;99.90;;;;;;5078288;28;20035;-76
2022/03/07 02:13:13;;;;;;;20.23;14.68;;;2.70;99.90;;;;;;5060263;28;20560;-77
2022/03/07 02:15:39;;;;;;;21.10;15.95;;;2.70;99.90;;;;;;5077845;28;20016;-77
2022/03/07 02:18:05;;;;;;;22.52;15.00;;;2.80;99.90;;;;;;5078364;28;20023;-76
2022/03/07 02:20:31;;;;;;;22.27;15.23;;;2.80;99.90;;;;;;5077815;28;20032;-76
2022/03/07 02:22:57;;;;;;;20.95;15.90;;;2.90;99.90;;;;;;5078344;28;20033;-77
2022/03/07 02:25:23;;;;;;;27.42;18.15;;;2.90;99.90;;;;;;5078076;28;20025;-77
2022/03/07 02:27:49;;;;;;;25.00;16.38;;;3.00;99.90;;;;;;5077786;28;20035;-77
2022/03/07 02:30:14;;;;;;;22.02;16.25;;;3.00;99.90;;;;;;5059356;28;20028;-77
2022/03/07 02:32:42;;;;;;;22.45;16.08;;;3.00;99.90;;;;;;5060176;28;20049;-77
2022/03/07 02:35:10;;;;;;;23.13;16.05;;;3.00;99.90;;;;;;5059567;28;20025;-77
2022/03/07 02:37:36;;;;;;;25.55;17.33;;;3.00;99.90;;;;;;5060024;28;20105;-77
2022/03/07 02:40:12;;;;;;;21.75;16.23;;;3.00;99.90;;;;;;5135666;27;21112;-77
2022/03/07 02:42:38;;;;;;;22.95;15.75;;;3.00;99.90;;;;;;5134241;28;20460;-77
2022/03/07 02:45:05;;;;;;;24.58;16.48;;;3.00;99.90;;;;;;5135529;27;20055;-76
2022/03/07 02:47:31;;;;;;;26.27;18.15;;;2.90;99.90;;;;;;5134270;27;20062;-76
2022/03/07 02:49:57;;;;;;;21.70;17.08;;;2.80;99.90;;;;;;5135653;28;20028;-76
2022/03/07 02:52:22;;;;;;;20.55;15.68;;;2.70;99.90;;;;;;5134195;27;20019;-76
2022/03/07 02:54:48;;;;;;;24.30;15.35;;;2.60;99.90;;;;;;5134271;28;20087;-76
2022/03/07 02:57:14;;;;;;;19.88;15.43;;;2.60;99.90;;;;;;5134295;28;20107;-76
2022/03/07 02:59:40;;;;;;;19.98;15.32;;;2.60;99.90;;;;;;5133607;27;20519;-77
2022/03/07 03:02:06;;;;;;;21.48;15.82;;;2.50;99.90;;;;;;5135428;27;20095;-77
2022/03/07 03:04:33;;;;;;;29.80;18.33;;;2.50;99.90;;;;;;5135138;27;20099;-77
2022/03/07 03:06:59;;;;;;;23.65;16.83;;;2.60;99.90;;;;;;5135315;27;20016;-76
2022/03/07 03:09:25;;;;;;;26.58;17.20;;;2.60;99.90;;;;;;5133682;27;20030;-76
2022/03/07 03:11:51;;;;;;;28.38;18.25;;;2.50;99.90;;;;;;5133879;28;20031;-76
2022/03/07 03:14:17;;;;;;;20.60;15.73;;;2.50;99.90;;;;;;5133660;28;20035;-76
2022/03/07 03:16:43;;;;;;;20.88;17.25;;;2.40;99.90;;;;;;5133615;28;20031;-76
2022/03/07 03:19:09;;;;;;;22.33;17.25;;;2.40;99.90;;;;;;5133508;27;20119;-76
2022/03/07 03:21:35;;;;;;;24.98;17.98;;;2.30;99.90;;;;;;5117868;27;20012;-76
2022/03/07 03:24:01;;;;;;;20.48;16.20;;;2.10;99.90;;;;;;5114608;28;20487;-76
2022/03/07 03:26:26;;;;;;;23.20;16.08;;;2.10;99.90;;;;;;5113167;28;20103;-77
2022/03/07 03:28:52;;;;;;;22.50;17.45;;;2.00;99.90;;;;;;5112751;28;20031;-76
2022/03/07 03:31:18;;;;;;;20.90;17.52;;;1.90;99.90;;;;;;5112651;28;20035;-77
2022/03/07 03:33:44;;;;;;;19.50;15.98;;;1.80;99.90;;;;;;5112667;28;20032;-77
2022/03/07 03:36:11;;;;;;;24.08;17.08;;;1.80;99.90;;;;;;5113110;28;20020;-76
2022/03/07 03:38:36;;;;;;;23.80;16.65;;;1.70;99.90;;;;;;5112455;28;20040;-76
2022/03/07 03:41:02;;;;;;;28.60;17.95;;;1.70;99.90;;;;;;5112739;28;20487;-76
2022/03/07 03:43:28;;;;;;;29.15;19.23;;;1.80;99.90;;;;;;5112565;28;20403;-76
2022/03/07 03:45:54;;;;;;;24.13;18.55;;;1.90;99.90;;;;;;5112289;28;20091;-76
2022/03/07 03:48:20;;;;;;;24.30;17.65;;;1.90;99.90;;;;;;5114172;28;20036;-76
2022/03/07 03:50:46;;;;;;;23.38;17.70;;;1.90;99.90;;;;;;5103159;28;20028;-76
2022/03/07 03:53:11;;;;;;;20.75;16.98;;;1.90;99.90;;;;;;5100207;28;20050;-77
2022/03/07 03:55:37;;;;;;;23.65;17.08;;;1.90;99.90;;;;;;5100142;28;20016;-76
2022/03/07 03:58:03;;;;;;;23.48;18.15;;;1.90;99.90;;;;;;5100012;28;20028;-76
2022/03/07 04:00:29;;;;;;;28.77;19.15;;;1.90;99.90;;;;;;5099875;28;20039;-76
2022/03/07 04:02:55;;;;;;;28.90;18.88;;;2.00;99.90;;;;;;5098939;28;20020;-76
2022/03/07 04:05:21;;;;;;;24.02;18.40;;;2.00;99.90;;;;;;5100176;28;20156;-76
2022/03/07 04:07:47;;;;;;;24.90;17.70;;;2.00;99.90;;;;;;5099829;28;20073;-76
2022/03/07 04:10:16;;;;;;;30.35;18.45;;;2.00;99.90;;;;;;5099949;28;20017;-76
2022/03/07 04:12:43;;;;;;;27.33;17.80;;;1.90;99.90;;;;;;5099731;28;20073;-76
2022/03/07 04:15:09;;;;;;;22.40;18.05;;;1.90;99.90;;;;;;5099897;28;20021;-76
2022/03/07 04:17:40;;;;;;;23.00;18.75;;;1.90;99.90;;;;;;5099687;28;20032;-76
2022/03/07 04:20:07;;;;;;;23.65;18.90;;;1.80;99.90;;;;;;5098272;28;20028;-78
2022/03/07 04:22:34;;;;;;;22.77;17.23;;;1.80;99.90;;;;;;5099536;28;20020;-76
2022/03/07 04:25:00;;;;;;;25.38;18.55;;;1.70;99.90;;;;;;5098294;28;20020;-76
2022/03/07 04:27:25;;;;;;;22.48;17.92;;;1.60;99.90;;;;;;5098078;28;20031;-76
2022/03/07 04:29:51;;;;;;;24.42;18.45;;;1.50;99.90;;;;;;5099548;28;20020;-76
2022/03/07 04:32:17;;;;;;;25.90;19.35;;;1.50;99.90;;;;;;5097955;28;20028;-79
2022/03/07 04:34:43;;;;;;;25.10;18.70;;;1.40;99.90;;;;;;5099436;28;20035;-76
2022/03/07 04:37:09;;;;;;;29.75;19.92;;;1.40;99.90;;;;;;5098026;28;20024;-79
2022/03/07 04:39:35;;;;;;;25.38;20.00;;;1.40;99.90;;;;;;5097781;28;20448;-79
2022/03/07 04:42:01;;;;;;;27.85;20.02;;;1.30;99.90;;;;;;5099090;28;20024;-79
2022/03/07 04:44:27;;;;;;;25.38;18.98;;;1.30;99.90;;;;;;5099050;28;20026;-79
2022/03/07 04:46:52;;;;;;;25.30;16.83;;;1.30;99.90;;;;;;5098035;28;20028;-78
2022/03/07 04:49:18;;;;;;;26.90;19.27;;;1.30;99.90;;;;;;5098205;28;20024;-79
2022/03/07 04:51:45;;;;;;;27.83;19.25;;;1.30;99.90;;;;;;5097780;28;20028;-79
2022/03/07 04:54:14;;;;;;;30.95;19.73;;;1.30;99.90;;;;;;5097910;28;20442;-79
2022/03/07 04:56:43;;;;;;;25.23;18.65;;;1.30;99.90;;;;;;5097515;28;20024;-78
2022/03/07 04:59:12;;;;;;;31.10;19.15;;;1.30;99.90;;;;;;5099146;28;20024;-78
2022/03/07 05:01:38;;;;;;;38.40;21.70;;;1.40;99.90;;;;;;5097827;28;20074;-78
2022/03/07 05:04:04;;;;;;;31.90;20.90;;;1.40;99.90;;;;;;5097504;28;20027;-78
2022/03/07 05:06:30;;;;;;;33.92;20.92;;;1.40;99.90;;;;;;5097745;28;20024;-78
2022/03/07 05:08:56;;;;;;;30.10;18.58;;;1.40;99.90;;;;;;5097516;28;20073;-79
2022/03/07 05:11:21;;;;;;;23.60;19.67;;;1.40;99.90;;;;;;5097638;28;20060;-78
2022/03/07 05:13:47;;;;;;;20.90;17.35;;;1.30;99.90;;;;;;5097317;28;20028;-79
2022/03/07 05:16:13;;;;;;;25.63;18.20;;;1.20;99.90;;;;;;5097317;28;20028;-78
2022/03/07 05:18:39;;;;;;;27.70;18.80;;;1.20;99.90;;;;;;5097552;28;20048;-78
2022/03/07 05:21:05;;;;;;;28.05;19.30;;;1.10;99.90;;;;;;5097579;28;20020;-79
2022/03/07 05:23:30;;;;;;;23.95;17.80;;;1.00;99.90;;;;;;5098487;28;20020;-78
2022/03/07 05:25:56;;;;;;;27.67;19.08;;;0.90;99.90;;;;;;5098524;28;20439;-78
2022/03/07 05:28:22;;;;;;;27.80;18.42;;;0.90;99.90;;;;;;5096921;28;20564;-78
2022/03/07 05:30:48;;;;;;;26.33;19.27;;;0.90;99.90;;;;;;5096845;28;20028;-79
2022/03/07 05:33:14;;;;;;;22.95;17.73;;;0.90;99.90;;;;;;5095499;28;20020;-78
2022/03/07 05:35:40;;;;;;;28.25;18.73;;;0.80;99.90;;;;;;5098298;28;20506;-78
2022/03/07 05:38:06;;;;;;;29.90;19.52;;;0.90;99.90;;;;;;5098076;28;20092;-78
2022/03/07 05:40:32;;;;;;;27.58;18.20;;;0.90;99.90;;;;;;5098102;28;20480;-78
2022/03/07 05:42:57;;;;;;;28.73;20.88;;;0.80;99.90;;;;;;5096798;28;20024;-78
2022/03/07 05:45:23;;;;;;;29.90;20.33;;;0.80;99.90;;;;;;5097691;28;20494;-78
2022/03/07 05:47:49;;;;;;;33.03;21.02;;;0.80;99.90;;;;;;5096907;28;20024;-78
2022/03/07 05:50:15;;;;;;;31.05;20.83;;;0.80;99.90;;;;;;5098447;28;20021;-78
2022/03/07 05:52:41;;;;;;;30.60;19.52;;;0.70;99.90;;;;;;5096811;28;20042;-79
2022/03/07 05:55:07;;;;;;;28.55;20.27;;;0.70;99.90;;;;;;5098211;28;20031;-78
2022/03/07 05:57:33;;;;;;;33.38;23.17;;;0.70;99.90;;;;;;5096624;28;20051;-79
2022/03/07 05:59:59;;;;;;;32.40;21.23;;;0.70;99.90;;;;;;5096601;28;20031;-78
2022/03/07 06:02:25;;;;;;;35.35;22.33;;;0.70;99.90;;;;;;5097994;28;20016;-78
2022/03/07 06:04:52;;;;;;;31.27;20.75;;;0.70;99.90;;;;;;5096769;28;20031;-79
2022/03/07 06:07:17;;;;;;;28.35;19.13;;;0.70;99.90;;;;;;5096445;28;20487;-79
2022/03/07 06:09:43;;;;;;;29.92;19.75;;;0.70;99.90;;;;;;5096410;28;20024;-79
2022/03/07 06:12:09;;;;;;;35.88;21.17;;;0.70;99.90;;;;;;5097592;28;20020;-79
2022/03/07 06:14:35;;;;;;;28.27;21.63;;;0.80;99.90;;;;;;5096134;28;20036;-78
2022/03/07 06:17:01;;;;;;;35.03;21.95;;;0.80;99.90;;;;;;5097828;28;20034;-78
2022/03/07 06:19:27;;;;;;;39.80;22.98;;;0.70;99.90;;;;;;5096291;28;20038;-78
2022/03/07 06:21:53;;;;;;;34.25;23.35;;;0.70;99.90;;;;;;5097409;28;20024;-78
2022/03/07 06:24:19;;;;;;;38.53;23.17;;;0.80;99.90;;;;;;5097538;28;20024;-78
2022/03/07 06:26:44;;;;;;;41.38;24.30;;;0.80;99.90;;;;;;5097625;28;20016;-78
2022/03/07 06:29:10;;;;;;;42.88;26.10;;;0.80;99.90;;;;;;5097344;28;20416;-78
2022/03/07 06:31:36;;;;;;;44.58;27.13;;;0.80;99.90;;;;;;5095832;28;20019;-79
2022/03/07 06:34:03;;;;;;;56.08;34.03;;;0.80;99.90;;;;;;5095965;28;20031;-78
2022/03/07 06:36:29;;;;;;;60.97;35.25;;;0.80;99.90;;;;;;5095936;28;20509;-78
2022/03/07 06:38:54;;;;;;;154.20;73.80;;;0.80;99.90;;;;;;5095736;28;20419;-78
2022/03/07 06:41:20;;;;;;;202.85;98.28;;;0.80;99.90;;;;;;5097325;28;20024;-78
2022/03/07 06:43:46;;;;;;;141.70;66.82;;;0.70;99.90;;;;;;5097183;28;20070;-79
2022/03/07 06:46:12;;;;;;;139.48;69.72;;;0.80;99.90;;;;;;5095686;28;20528;-79
2022/03/07 06:48:39;;;;;;;111.03;56.10;;;0.80;99.90;;;;;;5097324;28;20030;-79
2022/03/07 06:51:05;;;;;;;111.93;56.75;;;0.80;99.90;;;;;;5097233;28;20024;-79
2022/03/07 06:53:31;;;;;;;89.20;46.67;;;0.80;99.90;;;;;;5095730;28;20530;-79
2022/03/07 06:55:57;;;;;;;69.10;36.13;;;0.90;99.90;;;;;;5096139;28;20063;-78
2022/03/07 06:58:23;;;;;;;68.15;38.38;;;0.90;99.90;;;;;;5096932;28;20058;-78
2022/03/07 07:00:49;;;;;;;69.47;39.45;;;1.00;99.90;;;;;;5095676;28;20028;-79
2022/03/07 07:03:15;;;;;;;72.18;41.65;;;1.00;99.90;;;;;;5096323;28;20030;-79
2022/03/07 07:05:41;;;;;;;77.57;43.05;;;1.10;99.90;;;;;;5097065;28;20052;-79
2022/03/07 07:08:07;;;;;;;65.97;37.38;;;1.10;99.90;;;;;;5096175;28;20028;-79
2022/03/07 07:10:33;;;;;;;58.38;32.80;;;1.30;99.90;;;;;;5096953;28;20121;-80
2022/03/07 07:12:59;;;;;;;54.63;32.00;;;1.30;99.90;;;;;;5097007;28;20028;-79
2022/03/07 07:15:25;;;;;;;81.78;51.88;;;1.40;99.90;;;;;;5096667;28;20061;-79
2022/03/07 07:17:51;;;;;;;57.42;37.50;;;1.40;99.90;;;;;;5095600;28;20028;-79
2022/03/07 07:20:16;;;;;;;47.92;31.70;;;1.50;99.90;;;;;;5095738;28;20093;-79
2022/03/07 07:22:42;;;;;;;55.03;34.00;;;1.50;99.90;;;;;;5096883;28;20094;-79
2022/03/07 07:25:09;;;;;;;54.00;32.78;;;1.60;99.90;;;;;;5097696;28;20031;-79
2022/03/07 07:27:36;;;;;;;44.85;29.23;;;1.70;99.90;;;;;;5099321;28;20020;-79
2022/03/07 07:30:07;;;;;;;37.80;24.10;;;1.70;99.90;;;;;;5099334;28;20035;-79
2022/03/07 07:32:33;;;;;;;43.92;25.13;;;1.80;99.90;;;;;;5100731;28;20035;-79
2022/03/07 07:34:59;;;;;;;42.03;28.88;;;1.90;99.90;;;;;;5100536;28;20095;-79
2022/03/07 07:37:25;;;;;;;38.90;24.98;;;2.00;99.90;;;;;;5107025;28;20058;-79
2022/03/07 07:39:51;;;;;;;36.80;25.50;;;2.10;99.90;;;;;;5119278;28;20097;-79
2022/03/07 07:42:17;;;;;;;42.38;27.88;;;2.10;99.90;;;;;;5119526;28;20437;-79
2022/03/07 07:44:42;;;;;;;35.78;26.52;;;2.20;99.90;;;;;;5119042;28;20043;-79
2022/03/07 07:47:09;;;;;;;44.40;28.83;;;2.30;99.90;;;;;;5119467;28;20023;-79
2022/03/07 07:49:35;;;;;;;42.85;25.75;;;2.40;99.90;;;;;;5119377;28;20499;-79
2022/03/07 07:52:02;;;;;;;33.10;23.67;;;2.50;99.90;;;;;;5119498;28;20141;-78
2022/03/07 07:54:30;;;;;;;34.72;22.88;;;2.60;99.90;;;;;;5120921;28;20484;-76
2022/03/07 07:56:56;;;;;;;36.25;22.67;;;2.70;99.90;;;;;;5119003;28;20395;-76
2022/03/07 07:59:23;;;;;;;36.03;23.45;;;2.90;99.90;;;;;;5115753;28;20028;-79
2022/03/07 08:01:49;;;;;;;36.97;24.02;;;3.00;99.90;;;;;;5099042;28;20024;-73
2022/03/07 08:04:15;;;;;;;34.08;21.52;;;3.20;99.90;;;;;;5098669;28;20073;-73
2022/03/07 08:06:41;;;;;;;31.83;19.00;;;3.40;99.90;;;;;;5100024;28;20028;-73
2022/03/07 08:09:07;;;;;;;37.47;24.35;;;3.50;99.90;;;;;;5100160;28;20107;-73
2022/03/07 08:11:33;;;;;;;60.83;37.80;;;3.60;99.90;;;;;;5098540;28;20846;-74
2022/03/07 08:13:58;;;;;;;58.60;35.03;;;3.70;99.90;;;;;;5114476;28;20027;-73
2022/03/07 08:16:25;;;;;;;28.00;17.45;;;3.80;99.90;;;;;;5120042;28;20046;-74
2022/03/07 08:18:51;;;;;;;513.92;205.02;;;3.80;99.90;;;;;;5111885;28;20522;-74
2022/03/07 08:21:20;;;;;;;52.05;25.30;;;4.00;99.90;;;;;;5099382;28;20098;-74
2022/03/07 08:23:46;;;;;;;28.40;16.83;;;4.10;99.90;;;;;;5099709;28;20048;-73
2022/03/07 08:26:11;;;;;;;45.40;27.80;;;4.20;99.90;;;;;;5097741;28;20054;-74
2022/03/07 08:28:37;;;;;;;27.58;17.98;;;4.30;99.90;;;;;;5098488;28;20020;-73
2022/03/07 08:31:03;;;;;;;28.90;16.45;;;4.40;99.90;;;;;;5098644;28;20027;-74
2022/03/07 08:33:31;;;;;;;108.47;58.25;;;4.60;99.90;;;;;;5098834;28;20024;-74
2022/03/07 08:35:58;;;;;;;618.55;349.95;;;4.70;99.90;;;;;;5096333;28;20075;-74
2022/03/07 08:38:24;;;;;;;514.00;293.35;;;4.80;99.90;;;;;;5098544;28;20415;-74
2022/03/07 08:40:50;;;;;;;604.03;350.85;;;4.80;99.90;;;;;;5097637;28;20025;-74
2022/03/07 08:43:16;;;;;;;488.40;263.05;;;4.90;99.90;;;;;;5092230;28;20028;-74
2022/03/07 08:45:42;;;;;;;45.17;26.77;;;5.00;99.90;;;;;;5097175;28;20024;-74
2022/03/07 08:48:07;;;;;;;34.15;22.58;;;5.00;99.90;;;;;;5097122;28;20107;-74
2022/03/07 08:50:33;;;;;;;32.33;23.45;;;5.10;99.90;;;;;;5097144;28;20099;-74
2022/03/07 08:52:59;;;;;;;29.25;21.02;;;5.20;99.90;;;;;;5097458;28;20396;-74
2022/03/07 08:55:25;;;;;;;38.95;31.02;;;5.30;99.90;;;;;;5096964;28;20019;-74
2022/03/07 08:57:51;;;;;;;30.80;19.95;;;5.30;99.90;;;;;;5096494;28;20067;-74
2022/03/07 09:00:17;;;;;;;28.20;23.98;;;5.40;99.90;;;;;;5096932;28;20391;-74
2022/03/07 09:02:43;;;;;;;23.77;17.63;;;5.50;99.90;;;;;;5097101;28;20054;-74
2022/03/07 09:05:09;;;;;;;22.90;15.88;;;5.60;99.90;;;;;;5097980;28;20024;-74
2022/03/07 09:07:35;;;;;;;30.60;21.60;;;5.70;99.90;;;;;;5098842;28;20051;-73
2022/03/07 09:10:01;;;;;;;26.27;20.35;;;5.80;99.90;;;;;;5098617;28;20058;-73
2022/03/07 09:12:29;;;;;;;21.77;16.35;;;5.90;99.90;;;;;;5098565;28;20050;-73
2022/03/07 09:15:01;;;;;;;25.15;16.70;;;5.90;99.90;;;;;;5098375;28;20031;-74
2022/03/07 09:17:28;;;;;;;26.35;17.77;;;6.10;99.90;;;;;;5097300;28;20044;-74
2022/03/07 09:19:58;;;;;;;25.05;17.23;;;6.20;99.90;;;;;;5097307;28;20039;-74
2022/03/07 09:22:27;;;;;;;25.38;17.90;;;6.30;99.90;;;;;;5084027;28;20016;-74
2022/03/07 09:24:53;;;;;;;27.98;17.35;;;6.50;99.90;;;;;;5092635;28;20077;-74
2022/03/07 09:27:19;;;;;;;28.48;18.60;;;6.50;99.90;;;;;;5098042;28;20012;-74
2022/03/07 09:29:46;;;;;;;30.60;17.15;;;6.60;99.90;;;;;;5097104;28;20035;-73
2022/03/07 09:32:13;;;;;;;25.35;16.15;;;6.80;99.90;;;;;;5098172;28;20107;-74
2022/03/07 09:34:39;;;;;;;22.27;17.25;;;6.80;99.90;;;;;;5096116;28;20024;-74
2022/03/07 09:37:06;;;;;;;22.15;16.08;;;6.90;99.90;;;;;;5096730;28;20109;-73
2022/03/07 09:39:35;;;;;;;25.75;15.80;;;7.00;99.90;;;;;;5096688;28;20052;-73
2022/03/07 09:42:02;;;;;;;24.27;17.25;;;7.20;99.90;;;;;;5097982;28;20020;-73
2022/03/07 09:44:29;;;;;;;19.85;14.65;;;7.40;99.90;;;;;;5098006;28;20074;-73
2022/03/07 09:46:57;;;;;;;105.85;43.05;;;7.50;99.90;;;;;;5097818;28;20431;-73
2022/03/07 09:49:24;;;;;;;277.95;99.65;;;7.60;99.90;;;;;;5095940;28;20027;-73
2022/03/07 09:51:50;;;;;;;21.40;14.65;;;7.90;99.90;;;;;;5096430;28;20046;-73
2022/03/07 09:54:16;;;;;;;22.45;14.48;;;8.20;99.90;;;;;;5097919;28;20085;-73
2022/03/07 09:56:42;;;;;;;29.30;17.63;;;8.40;99.90;;;;;;5097919;28;20107;-73
2022/03/07 09:59:08;;;;;;;17.98;12.95;;;8.50;99.90;;;;;;5097663;28;20020;-73
2022/03/07 10:01:35;;;;;;;20.00;12.23;;;8.60;99.90;;;;;;5097764;28;20023;-73
2022/03/07 10:04:11;;;;;;;22.23;13.23;;;8.80;99.90;;;;;;5097473;28;20048;-73
2022/03/07 10:06:38;;;;;;;24.95;13.65;;;8.90;99.90;;;;;;5096284;28;20031;-73
2022/03/07 10:09:04;;;;;;;121.60;48.60;;;8.90;99.90;;;;;;5097463;28;20031;-73
2022/03/07 10:11:32;;;;;;;45.60;21.63;;;9.10;99.90;;;;;;5097266;28;20069;-73
2022/03/07 10:14:00;;;;;;;48.63;24.95;;;9.20;99.90;;;;;;5097375;28;20059;-73
2022/03/07 10:16:40;;;;;;;18.58;11.95;;;9.40;99.90;;;;;;5097365;28;20023;-73
2022/03/07 10:19:12;;;;;;;22.17;12.25;;;9.50;99.90;;;;;;5097470;28;20028;-73
2022/03/07 10:21:45;;;;;;;19.80;13.63;;;9.50;99.90;;;;;;5097003;28;20024;-73
2022/03/07 10:24:11;;;;;;;22.83;13.85;;;9.70;99.90;;;;;;5096188;28;20377;-73
2022/03/07 10:26:37;;;;;;;35.33;17.20;;;9.80;99.90;;;;;;5096055;28;20042;-73
2022/03/07 10:29:05;;;;;;;26.05;14.55;;;9.90;99.90;;;;;;5097199;28;20170;-73
2022/03/07 10:31:31;;;;;;;20.95;12.90;;;10.00;99.90;;;;;;5097525;28;20024;-73
2022/03/07 10:34:03;;;;;;;18.60;12.98;;;10.10;99.90;;;;;;5096006;28;20032;-73
2022/03/07 10:36:31;;;;;;;22.17;13.95;;;10.10;99.90;;;;;;5096105;28;20028;-73
2022/03/07 10:38:57;;;;;;;23.63;16.10;;;10.20;99.90;;;;;;5095819;28;20036;-73
2022/03/07 10:41:46;;;;;;;40.70;20.35;;;10.20;99.90;;;;;;5088415;28;20032;-73
2022/03/07 10:44:25;;;;;;;24.55;13.75;;;10.20;99.90;;;;;;5086755;28;20028;-73
2022/03/07 10:46:51;;;;;;;22.27;13.77;;;10.20;99.90;;;;;;5097255;28;20020;-73
2022/03/07 10:49:18;;;;;;;23.33;13.80;;;10.40;99.90;;;;;;5095986;28;20034;-73
2022/03/07 10:52:03;;;;;;;21.67;14.00;;;10.50;99.90;;;;;;5095856;28;20119;-73
2022/03/07 10:54:35;;;;;;;20.73;13.60;;;10.40;99.90;;;;;;5097691;28;20035;-73
2022/03/07 10:57:02;;;;;;;18.08;12.93;;;10.60;99.90;;;;;;5097213;28;20028;-75
2022/03/07 10:59:33;;;;;;;22.33;14.45;;;10.40;99.90;;;;;;5095356;28;20492;-75
2022/03/07 11:02:17;;;;;;;23.75;16.25;;;10.40;99.90;;;;;;5099956;28;20051;-75
2022/03/07 11:04:45;;;;;;;30.10;18.95;;;10.40;99.90;;;;;;5099873;28;20024;-75
2022/03/07 11:07:12;;;;;;;18.88;12.93;;;10.50;99.90;;;;;;5101187;28;20024;-75
2022/03/07 11:09:39;;;;;;;19.40;13.30;;;10.70;99.90;;;;;;5099662;28;20050;-74
2022/03/07 11:12:09;;;;;;;21.73;15.07;;;10.80;99.90;;;;;;5100916;28;20048;-75
2022/03/07 11:14:38;;;;;;;20.33;13.95;;;10.90;99.90;;;;;;5100530;28;20031;-74
2022/03/07 11:17:06;;;;;;;24.75;17.08;;;10.90;99.90;;;;;;5100220;28;20028;-74
2022/03/07 11:19:33;;;;;;;20.13;13.70;;;11.10;99.90;;;;;;5099321;28;20032;-75
2022/03/07 11:21:59;;;;;;;19.45;14.38;;;11.20;99.90;;;;;;5100376;28;20028;-74
2022/03/07 11:24:27;;;;;;;21.35;13.88;;;11.20;99.90;;;;;;5107853;28;20020;-74
2022/03/07 11:26:55;;;;;;;22.38;15.40;;;11.00;99.90;;;;;;5112313;28;20095;-74
2022/03/07 11:29:32;;;;;;;17.42;13.18;;;10.80;99.90;;;;;;5099528;28;20112;-75
2022/03/07 11:32:10;;;;;;;21.02;14.70;;;10.70;99.90;;;;;;5099996;28;20084;-75
2022/03/07 11:34:36;;;;;;;17.33;14.25;;;10.70;99.90;;;;;;5099180;28;20028;-75
2022/03/07 11:37:14;;;;;;;20.35;13.43;;;10.60;99.90;;;;;;5100587;28;20038;-75
2022/03/07 11:39:41;;;;;;;50.03;31.27;;;10.70;99.90;;;;;;5100230;28;20048;-74
2022/03/07 11:42:19;;;;;;;25.20;14.68;;;10.80;99.90;;;;;;5100575;28;20030;-75
2022/03/07 11:44:47;;;;;;;19.38;13.18;;;11.00;99.90;;;;;;5099015;28;20032;-74
2022/03/07 11:47:16;;;;;;;21.17;15.23;;;11.20;99.90;;;;;;5099021;28;20043;-73
2022/03/07 11:49:43;;;;;;;21.75;17.13;;;11.20;99.90;;;;;;5098850;28;20039;-72
2022/03/07 11:52:15;;;;;;;16.92;13.18;;;11.30;99.90;;;;;;5098626;28;20024;-72
2022/03/07 11:54:54;;;;;;;22.17;14.43;;;11.40;99.90;;;;;;5099108;28;20073;-72
2022/03/07 11:57:35;;;;;;;20.55;13.52;;;11.40;99.90;;;;;;5098803;28;20024;-73
2022/03/07 12:00:12;;;;;;;20.38;13.48;;;11.40;99.90;;;;;;5099640;28;20107;-72
2022/03/07 12:02:43;;;;;;;19.60;13.85;;;11.20;99.90;;;;;;5098765;28;20031;-75
2022/03/07 12:05:24;;;;;;;19.80;14.23;;;11.10;99.90;;;;;;5098628;28;20060;-75
2022/03/07 12:07:51;;;;;;;19.30;11.98;;;11.00;99.90;;;;;;5098442;28;20017;-75
2022/03/07 12:10:17;;;;;;;20.55;13.90;;;11.00;99.90;;;;;;5100008;28;20047;-75
2022/03/07 12:12:43;;;;;;;16.67;11.98;;;10.90;99.90;;;;;;5098557;28;20032;-74
2022/03/07 12:15:12;;;;;;;61.58;41.70;;;10.90;99.90;;;;;;5098952;28;20543;-74
2022/03/07 12:17:38;;;;;;;22.20;16.42;;;10.90;99.90;;;;;;5097924;28;20016;-75
2022/03/07 12:20:06;;;;;;;17.25;13.23;;;10.80;99.90;;;;;;5099024;28;20031;-75
2022/03/07 12:22:34;;;;;;;18.92;13.38;;;10.80;99.90;;;;;;5098951;28;20062;-75
2022/03/07 12:25:06;;;;;;;24.90;17.90;;;10.90;99.90;;;;;;5099020;28;20077;-74
2022/03/07 12:27:37;;;;;;;19.67;13.32;;;11.00;99.90;;;;;;5098680;28;20049;-75
2022/03/07 12:30:05;;;;;;;19.40;12.93;;;11.00;99.90;;;;;;5097274;28;20028;-75
2022/03/07 12:32:31;;;;;;;17.23;12.32;;;11.10;99.90;;;;;;5097436;28;20030;-72
2022/03/07 12:34:57;;;;;;;18.92;13.40;;;11.20;99.90;;;;;;5098577;28;20024;-73